Inzhener Plavinskiy — UBFM — position and weather

sailwx.info

Track history (hours):
 
Tides and Currents Weather Stations Pressure Air Temp Water Temp Dewpoint Dewpoint Depression Visibility Wind Speed Wind Dir Waves Ship Positions

Inzhener Plavinskiy

Last reported at 2018-Feb-17 19:45 UTC. Time now 2018-Feb-19 17:42 UTC.
Position N 60°25' E 019°02'.

Length 156 m; draft 5.2 m.

Type: Cargo ship. MMSI: 273388730.

Date/timePositionNaut miles runAvg speedWind from/ knotsBaromVisibWave heightAir tempDewpointWater temp
2018-Feb-17 19:45N 60°25' E 019°02'412.2
2018-Feb-17 19:26N 60°21' E 019°01'512.2
2018-Feb-17 19:00N 60°16' E 019°01'611.3
2018-Feb-17 18:30N 60°11' E 019°06'611.8
2018-Feb-17 18:00N 60°07' E 019°13'612.0
2018-Feb-17 17:29N 60°02' E 019°22'812.1
2018-Feb-17 16:52N 59°56' E 019°31'30911.4
2018-Feb-16 13:52N 54°47' E 019°36'  
2018-Feb-10 12:54N 54°42' E 020°27'  
Track history (hours):
 
Tides and Currents Weather Stations Pressure Air Temp Water Temp Dewpoint Dewpoint Depression Visibility Wind Speed Wind Dir Waves Ship Positions

Inzhener Plavinskiy

Last reported at 2018-Feb-17 19:45 UTC. Time now 2018-Feb-19 17:42 UTC.
Position N 60°25' E 019°02'.

Length 156 m; draft 5.2 m.

Type: Cargo ship. MMSI: 273388730.

Date/timePositionNaut miles runAvg speedWind from/ knotsBaromVisibWave heightAir tempDewpointWater temp
2018-Feb-17 19:45N 60°25' E 019°02'412.2
2018-Feb-17 19:26N 60°21' E 019°01'512.2
2018-Feb-17 19:00N 60°16' E 019°01'611.3
2018-Feb-17 18:30N 60°11' E 019°06'611.8
2018-Feb-17 18:00N 60°07' E 019°13'612.0
2018-Feb-17 17:29N 60°02' E 019°22'812.1
2018-Feb-17 16:52N 59°56' E 019°31'30911.4
2018-Feb-16 13:52N 54°47' E 019°36'  
2018-Feb-10 12:54N 54°42' E 020°27'  

Dump ship's entire track history